sensor_id;sensor_type;location;lat;lon;timestamp;P1;durP1;ratioP1;P2;durP2;ratioP2
65033;SDS011;51601;51.356;12.458;2023-03-23T00:04:08;6.18;;;1.77;;
65033;SDS011;51601;51.356;12.458;2023-03-23T00:08:35;6.03;;;1.90;;
65033;SDS011;51601;51.356;12.458;2023-03-23T00:13:05;4.82;;;1.73;;
65033;SDS011;51601;51.356;12.458;2023-03-23T00:17:28;5.88;;;2.00;;
65033;SDS011;51601;51.356;12.458;2023-03-23T00:21:53;5.03;;;2.03;;
65033;SDS011;51601;51.356;12.458;2023-03-23T00:26:18;5.28;;;1.60;;
65033;SDS011;51601;51.356;12.458;2023-03-23T00:30:41;4.93;;;1.90;;
65033;SDS011;51601;51.356;12.458;2023-03-23T00:35:00;4.80;;;2.00;;
65033;SDS011;51601;51.356;12.458;2023-03-23T00:39:25;4.85;;;1.95;;
65033;SDS011;51601;51.356;12.458;2023-03-23T00:43:51;4.72;;;1.70;;
65033;SDS011;51601;51.356;12.458;2023-03-23T00:48:14;5.30;;;2.20;;
65033;SDS011;51601;51.356;12.458;2023-03-23T00:52:37;5.57;;;2.27;;
65033;SDS011;51601;51.356;12.458;2023-03-23T00:57:00;6.20;;;2.05;;
65033;SDS011;51601;51.356;12.458;2023-03-23T01:01:24;5.53;;;2.00;;
65033;SDS011;51601;51.356;12.458;2023-03-23T01:05:47;6.53;;;2.30;;
65033;SDS011;51601;51.356;12.458;2023-03-23T01:10:13;4.55;;;1.50;;
65033;SDS011;51601;51.356;12.458;2023-03-23T01:14:38;7.28;;;1.67;;
65033;SDS011;51601;51.356;12.458;2023-03-23T01:19:03;6.63;;;2.13;;
65033;SDS011;51601;51.356;12.458;2023-03-23T01:23:26;4.30;;;1.45;;
65033;SDS011;51601;51.356;12.458;2023-03-23T01:27:48;6.53;;;1.98;;
65033;SDS011;51601;51.356;12.458;2023-03-23T01:32:07;5.40;;;2.20;;
65033;SDS011;51601;51.356;12.458;2023-03-23T01:36:32;6.70;;;1.77;;
65033;SDS011;51601;51.356;12.458;2023-03-23T01:40:56;4.53;;;1.42;;
65033;SDS011;51601;51.356;12.458;2023-03-23T01:45:24;7.22;;;1.80;;
65033;SDS011;51601;51.356;12.458;2023-03-23T01:49:52;7.67;;;2.00;;
65033;SDS011;51601;51.356;12.458;2023-03-23T01:54:17;8.63;;;1.80;;
65033;SDS011;51601;51.356;12.458;2023-03-23T01:58:43;4.82;;;1.90;;
65033;SDS011;51601;51.356;12.458;2023-03-23T02:03:06;8.47;;;1.80;;
65033;SDS011;51601;51.356;12.458;2023-03-23T02:07:31;4.72;;;1.65;;
65033;SDS011;51601;51.356;12.458;2023-03-23T02:11:58;4.80;;;1.80;;
65033;SDS011;51601;51.356;12.458;2023-03-23T02:16:22;5.13;;;1.77;;
65033;SDS011;51601;51.356;12.458;2023-03-23T02:20:59;4.33;;;1.50;;
65033;SDS011;51601;51.356;12.458;2023-03-23T02:25:53;4.10;;;1.27;;
65033;SDS011;51601;51.356;12.458;2023-03-23T02:30:31;5.07;;;1.80;;
65033;SDS011;51601;51.356;12.458;2023-03-23T02:35:15;5.20;;;1.90;;
65033;SDS011;51601;51.356;12.458;2023-03-23T02:39:42;4.97;;;1.42;;
65033;SDS011;51601;51.356;12.458;2023-03-23T02:44:09;6.25;;;1.80;;
65033;SDS011;51601;51.356;12.458;2023-03-23T02:48:34;6.53;;;1.70;;
65033;SDS011;51601;51.356;12.458;2023-03-23T02:52:59;8.73;;;1.92;;
65033;SDS011;51601;51.356;12.458;2023-03-23T02:57:23;5.25;;;1.85;;
65033;SDS011;51601;51.356;12.458;2023-03-23T03:02:04;5.60;;;1.80;;
65033;SDS011;51601;51.356;12.458;2023-03-23T03:06:31;5.43;;;1.70;;
65033;SDS011;51601;51.356;12.458;2023-03-23T03:11:03;5.05;;;1.60;;
65033;SDS011;51601;51.356;12.458;2023-03-23T03:15:31;3.92;;;1.35;;
65033;SDS011;51601;51.356;12.458;2023-03-23T03:19:59;4.83;;;1.57;;
65033;SDS011;51601;51.356;12.458;2023-03-23T03:24:28;4.35;;;1.65;;
65033;SDS011;51601;51.356;12.458;2023-03-23T03:28:53;4.90;;;1.77;;
65033;SDS011;51601;51.356;12.458;2023-03-23T03:33:17;4.73;;;1.70;;
65033;SDS011;51601;51.356;12.458;2023-03-23T03:37:42;3.92;;;1.50;;
65033;SDS011;51601;51.356;12.458;2023-03-23T03:42:06;5.30;;;1.58;;
65033;SDS011;51601;51.356;12.458;2023-03-23T03:46:30;4.90;;;1.60;;
65033;SDS011;51601;51.356;12.458;2023-03-23T03:50:53;4.40;;;1.60;;
65033;SDS011;51601;51.356;12.458;2023-03-23T03:55:18;4.32;;;1.52;;
65033;SDS011;51601;51.356;12.458;2023-03-23T03:59:42;5.30;;;1.42;;
65033;SDS011;51601;51.356;12.458;2023-03-23T04:04:26;6.17;;;1.80;;
65033;SDS011;51601;51.356;12.458;2023-03-23T04:08:49;4.90;;;1.50;;
65033;SDS011;51601;51.356;12.458;2023-03-23T04:13:12;5.60;;;1.67;;
65033;SDS011;51601;51.356;12.458;2023-03-23T04:17:53;4.37;;;1.60;;
65033;SDS011;51601;51.356;12.458;2023-03-23T04:22:20;6.03;;;1.70;;
65033;SDS011;51601;51.356;12.458;2023-03-23T04:26:45;4.80;;;1.70;;
65033;SDS011;51601;51.356;12.458;2023-03-23T04:31:16;5.65;;;1.65;;
65033;SDS011;51601;51.356;12.458;2023-03-23T04:35:44;8.27;;;1.80;;
65033;SDS011;51601;51.356;12.458;2023-03-23T04:40:17;7.63;;;1.80;;
65033;SDS011;51601;51.356;12.458;2023-03-23T04:44:51;7.40;;;1.85;;
65033;SDS011;51601;51.356;12.458;2023-03-23T04:49:22;4.47;;;1.50;;
65033;SDS011;51601;51.356;12.458;2023-03-23T04:53:53;6.15;;;1.75;;
65033;SDS011;51601;51.356;12.458;2023-03-23T04:58:20;7.25;;;1.92;;
65033;SDS011;51601;51.356;12.458;2023-03-23T05:03:03;12.77;;;2.40;;
65033;SDS011;51601;51.356;12.458;2023-03-23T05:07:28;9.02;;;2.42;;
65033;SDS011;51601;51.356;12.458;2023-03-23T05:11:51;7.72;;;2.30;;
65033;SDS011;51601;51.356;12.458;2023-03-23T05:16:16;9.10;;;2.53;;
65033;SDS011;51601;51.356;12.458;2023-03-23T05:20:40;9.60;;;2.33;;
65033;SDS011;51601;51.356;12.458;2023-03-23T05:25:09;6.88;;;2.20;;
65033;SDS011;51601;51.356;12.458;2023-03-23T05:29:40;10.07;;;3.33;;
65033;SDS011;51601;51.356;12.458;2023-03-23T05:34:04;8.50;;;3.20;;
65033;SDS011;51601;51.356;12.458;2023-03-23T05:38:41;11.57;;;3.33;;
65033;SDS011;51601;51.356;12.458;2023-03-23T05:43:07;6.97;;;2.55;;
65033;SDS011;51601;51.356;12.458;2023-03-23T05:47:40;8.63;;;2.83;;
65033;SDS011;51601;51.356;12.458;2023-03-23T05:52:14;14.15;;;4.32;;
65033;SDS011;51601;51.356;12.458;2023-03-23T05:56:37;10.13;;;3.85;;
65033;SDS011;51601;51.356;12.458;2023-03-23T06:01:14;11.38;;;3.33;;
65033;SDS011;51601;51.356;12.458;2023-03-23T06:05:41;7.87;;;3.13;;
65033;SDS011;51601;51.356;12.458;2023-03-23T06:10:08;8.32;;;2.60;;
65033;SDS011;51601;51.356;12.458;2023-03-23T06:14:33;6.70;;;2.50;;
65033;SDS011;51601;51.356;12.458;2023-03-23T06:18:56;5.93;;;2.53;;
65033;SDS011;51601;51.356;12.458;2023-03-23T06:23:27;6.22;;;2.35;;
65033;SDS011;51601;51.356;12.458;2023-03-23T06:27:52;7.45;;;2.50;;
65033;SDS011;51601;51.356;12.458;2023-03-23T06:32:16;8.17;;;2.50;;
65033;SDS011;51601;51.356;12.458;2023-03-23T06:36:39;7.70;;;2.60;;
65033;SDS011;51601;51.356;12.458;2023-03-23T06:41:12;6.85;;;2.83;;
65033;SDS011;51601;51.356;12.458;2023-03-23T06:45:36;7.60;;;2.80;;
65033;SDS011;51601;51.356;12.458;2023-03-23T06:50:32;6.53;;;2.53;;
65033;SDS011;51601;51.356;12.458;2023-03-23T06:54:57;9.60;;;2.40;;
65033;SDS011;51601;51.356;12.458;2023-03-23T06:59:20;6.65;;;2.42;;
65033;SDS011;51601;51.356;12.458;2023-03-23T07:03:44;8.13;;;2.50;;
65033;SDS011;51601;51.356;12.458;2023-03-23T07:08:11;5.40;;;1.83;;
65033;SDS011;51601;51.356;12.458;2023-03-23T07:12:46;6.05;;;1.80;;
65033;SDS011;51601;51.356;12.458;2023-03-23T07:17:10;3.50;;;1.53;;
65033;SDS011;51601;51.356;12.458;2023-03-23T07:21:44;4.90;;;1.75;;
65033;SDS011;51601;51.356;12.458;2023-03-23T07:26:08;5.53;;;1.80;;
65033;SDS011;51601;51.356;12.458;2023-03-23T07:30:42;4.53;;;1.60;;
65033;SDS011;51601;51.356;12.458;2023-03-23T07:35:06;5.10;;;1.77;;
65033;SDS011;51601;51.356;12.458;2023-03-23T07:39:41;4.25;;;1.60;;
65033;SDS011;51601;51.356;12.458;2023-03-23T07:44:05;5.40;;;1.70;;
65033;SDS011;51601;51.356;12.458;2023-03-23T07:48:30;4.30;;;1.67;;
65033;SDS011;51601;51.356;12.458;2023-03-23T07:52:54;4.50;;;1.90;;
65033;SDS011;51601;51.356;12.458;2023-03-23T07:57:19;6.20;;;1.90;;
65033;SDS011;51601;51.356;12.458;2023-03-23T08:01:47;5.20;;;1.80;;
65033;SDS011;51601;51.356;12.458;2023-03-23T08:06:23;5.35;;;1.60;;
65033;SDS011;51601;51.356;12.458;2023-03-23T08:11:06;5.20;;;1.80;;
65033;SDS011;51601;51.356;12.458;2023-03-23T08:15:46;5.22;;;1.80;;
65033;SDS011;51601;51.356;12.458;2023-03-23T08:20:28;5.27;;;1.73;;
65033;SDS011;51601;51.356;12.458;2023-03-23T08:24:59;4.78;;;1.73;;
65033;SDS011;51601;51.356;12.458;2023-03-23T08:29:37;5.95;;;1.77;;
65033;SDS011;51601;51.356;12.458;2023-03-23T08:34:21;6.07;;;2.50;;
65033;SDS011;51601;51.356;12.458;2023-03-23T08:39:05;5.70;;;2.10;;
65033;SDS011;51601;51.356;12.458;2023-03-23T08:44:04;5.80;;;2.17;;
65033;SDS011;51601;51.356;12.458;2023-03-23T08:48:48;6.00;;;2.33;;
65033;SDS011;51601;51.356;12.458;2023-03-23T08:53:31;5.78;;;2.10;;
65033;SDS011;51601;51.356;12.458;2023-03-23T08:58:20;5.75;;;1.98;;
65033;SDS011;51601;51.356;12.458;2023-03-23T09:03:04;5.63;;;2.15;;
65033;SDS011;51601;51.356;12.458;2023-03-23T09:07:44;5.17;;;2.10;;
65033;SDS011;51601;51.356;12.458;2023-03-23T09:12:09;5.72;;;2.20;;
65033;SDS011;51601;51.356;12.458;2023-03-23T09:16:32;8.32;;;2.00;;
65033;SDS011;51601;51.356;12.458;2023-03-23T09:20:55;5.90;;;1.87;;
65033;SDS011;51601;51.356;12.458;2023-03-23T09:25:19;6.00;;;1.80;;
65033;SDS011;51601;51.356;12.458;2023-03-23T09:29:45;5.43;;;1.98;;
65033;SDS011;51601;51.356;12.458;2023-03-23T09:34:09;5.80;;;2.20;;
65033;SDS011;51601;51.356;12.458;2023-03-23T09:38:32;5.78;;;2.13;;
65033;SDS011;51601;51.356;12.458;2023-03-23T09:43:02;5.45;;;2.00;;
65033;SDS011;51601;51.356;12.458;2023-03-23T09:47:37;5.10;;;2.20;;
65033;SDS011;51601;51.356;12.458;2023-03-23T09:52:06;5.30;;;2.00;;
65033;SDS011;51601;51.356;12.458;2023-03-23T09:56:33;5.20;;;1.80;;
65033;SDS011;51601;51.356;12.458;2023-03-23T10:00:57;5.35;;;1.92;;
65033;SDS011;51601;51.356;12.458;2023-03-23T10:05:31;7.80;;;2.37;;
65033;SDS011;51601;51.356;12.458;2023-03-23T10:09:56;6.32;;;1.90;;
65033;SDS011;51601;51.356;12.458;2023-03-23T10:14:39;4.80;;;1.63;;
65033;SDS011;51601;51.356;12.458;2023-03-23T10:19:10;6.67;;;2.00;;
65033;SDS011;51601;51.356;12.458;2023-03-23T10:23:49;5.15;;;1.77;;
65033;SDS011;51601;51.356;12.458;2023-03-23T10:28:17;6.50;;;2.28;;
65033;SDS011;51601;51.356;12.458;2023-03-23T10:32:44;6.20;;;1.95;;
65033;SDS011;51601;51.356;12.458;2023-03-23T10:37:14;4.90;;;2.00;;
65033;SDS011;51601;51.356;12.458;2023-03-23T10:41:42;5.28;;;1.70;;
65033;SDS011;51601;51.356;12.458;2023-03-23T10:46:05;5.78;;;1.65;;
65033;SDS011;51601;51.356;12.458;2023-03-23T10:50:37;7.00;;;1.93;;
65033;SDS011;51601;51.356;12.458;2023-03-23T10:55:03;6.97;;;1.80;;
65033;SDS011;51601;51.356;12.458;2023-03-23T10:59:31;5.40;;;1.77;;
65033;SDS011;51601;51.356;12.458;2023-03-23T11:03:54;5.67;;;1.50;;
65033;SDS011;51601;51.356;12.458;2023-03-23T11:08:18;3.92;;;1.40;;
65033;SDS011;51601;51.356;12.458;2023-03-23T11:12:43;4.90;;;1.70;;
65033;SDS011;51601;51.356;12.458;2023-03-23T11:17:20;5.72;;;2.05;;
65033;SDS011;51601;51.356;12.458;2023-03-23T11:21:45;4.47;;;1.20;;
65033;SDS011;51601;51.356;12.458;2023-03-23T11:26:13;4.95;;;1.50;;
65033;SDS011;51601;51.356;12.458;2023-03-23T11:30:38;3.28;;;1.25;;
65033;SDS011;51601;51.356;12.458;2023-03-23T11:35:03;5.33;;;1.40;;
65033;SDS011;51601;51.356;12.458;2023-03-23T11:39:30;6.18;;;1.40;;
65033;SDS011;51601;51.356;12.458;2023-03-23T11:43:55;4.35;;;1.60;;
65033;SDS011;51601;51.356;12.458;2023-03-23T11:48:19;4.23;;;1.60;;
65033;SDS011;51601;51.356;12.458;2023-03-23T11:52:51;3.30;;;1.20;;
65033;SDS011;51601;51.356;12.458;2023-03-23T11:57:19;4.55;;;1.50;;
65033;SDS011;51601;51.356;12.458;2023-03-23T12:01:46;4.03;;;1.30;;
65033;SDS011;51601;51.356;12.458;2023-03-23T12:06:13;2.87;;;1.10;;
65033;SDS011;51601;51.356;12.458;2023-03-23T12:10:44;4.57;;;1.30;;
65033;SDS011;51601;51.356;12.458;2023-03-23T12:15:15;4.60;;;1.40;;
65033;SDS011;51601;51.356;12.458;2023-03-23T12:19:46;6.33;;;1.70;;
65033;SDS011;51601;51.356;12.458;2023-03-23T12:24:19;5.25;;;1.50;;
65033;SDS011;51601;51.356;12.458;2023-03-23T12:28:56;4.05;;;1.52;;
65033;SDS011;51601;51.356;12.458;2023-03-23T12:33:49;6.33;;;1.70;;
65033;SDS011;51601;51.356;12.458;2023-03-23T12:38:31;3.80;;;1.40;;
65033;SDS011;51601;51.356;12.458;2023-03-23T12:43:03;5.82;;;1.60;;
65033;SDS011;51601;51.356;12.458;2023-03-23T12:47:38;5.85;;;1.50;;
65033;SDS011;51601;51.356;12.458;2023-03-23T12:52:09;3.47;;;1.20;;
65033;SDS011;51601;51.356;12.458;2023-03-23T12:56:37;4.07;;;1.33;;
65033;SDS011;51601;51.356;12.458;2023-03-23T13:01:04;3.55;;;1.20;;
65033;SDS011;51601;51.356;12.458;2023-03-23T13:05:38;4.97;;;1.20;;
65033;SDS011;51601;51.356;12.458;2023-03-23T13:10:07;6.32;;;1.65;;
65033;SDS011;51601;51.356;12.458;2023-03-23T13:14:40;2.95;;;1.20;;
65033;SDS011;51601;51.356;12.458;2023-03-23T13:19:09;2.90;;;1.10;;
65033;SDS011;51601;51.356;12.458;2023-03-23T13:23:38;5.13;;;1.63;;
65033;SDS011;51601;51.356;12.458;2023-03-23T13:28:03;3.38;;;1.20;;
65033;SDS011;51601;51.356;12.458;2023-03-23T13:32:30;4.13;;;1.27;;
65033;SDS011;51601;51.356;12.458;2023-03-23T13:36:57;3.70;;;1.13;;
65033;SDS011;51601;51.356;12.458;2023-03-23T13:41:23;4.32;;;1.20;;
65033;SDS011;51601;51.356;12.458;2023-03-23T13:45:47;4.20;;;1.27;;
65033;SDS011;51601;51.356;12.458;2023-03-23T13:50:11;2.73;;;1.07;;
65033;SDS011;51601;51.356;12.458;2023-03-23T13:54:47;3.47;;;1.10;;
65033;SDS011;51601;51.356;12.458;2023-03-23T13:59:14;4.75;;;1.50;;
65033;SDS011;51601;51.356;12.458;2023-03-23T14:03:39;3.60;;;1.03;;
65033;SDS011;51601;51.356;12.458;2023-03-23T14:08:10;4.65;;;1.20;;
65033;SDS011;51601;51.356;12.458;2023-03-23T14:12:35;4.57;;;1.40;;
65033;SDS011;51601;51.356;12.458;2023-03-23T14:17:06;4.80;;;1.30;;
65033;SDS011;51601;51.356;12.458;2023-03-23T14:21:34;4.87;;;1.30;;
65033;SDS011;51601;51.356;12.458;2023-03-23T14:26:00;5.03;;;1.30;;
65033;SDS011;51601;51.356;12.458;2023-03-23T14:30:35;4.43;;;1.40;;
65033;SDS011;51601;51.356;12.458;2023-03-23T14:35:04;3.00;;;1.30;;
65033;SDS011;51601;51.356;12.458;2023-03-23T14:39:29;2.97;;;1.10;;
65033;SDS011;51601;51.356;12.458;2023-03-23T14:43:53;4.82;;;1.58;;
65033;SDS011;51601;51.356;12.458;2023-03-23T14:48:16;3.47;;;1.20;;
65033;SDS011;51601;51.356;12.458;2023-03-23T14:52:41;3.42;;;1.30;;
65033;SDS011;51601;51.356;12.458;2023-03-23T14:57:09;6.53;;;1.40;;
65033;SDS011;51601;51.356;12.458;2023-03-23T15:01:35;3.97;;;1.35;;
65033;SDS011;51601;51.356;12.458;2023-03-23T15:06:00;3.60;;;1.17;;
65033;SDS011;51601;51.356;12.458;2023-03-23T15:10:28;4.53;;;1.20;;
65033;SDS011;51601;51.356;12.458;2023-03-23T15:14:52;4.20;;;1.40;;
65033;SDS011;51601;51.356;12.458;2023-03-23T15:19:17;4.93;;;1.40;;
65033;SDS011;51601;51.356;12.458;2023-03-23T15:23:43;4.82;;;1.27;;
65033;SDS011;51601;51.356;12.458;2023-03-23T15:28:14;5.43;;;1.40;;
65033;SDS011;51601;51.356;12.458;2023-03-23T15:32:39;3.77;;;1.47;;
65033;SDS011;51601;51.356;12.458;2023-03-23T15:37:05;4.85;;;1.30;;
65033;SDS011;51601;51.356;12.458;2023-03-23T15:41:45;6.63;;;1.30;;
65033;SDS011;51601;51.356;12.458;2023-03-23T15:46:20;5.93;;;1.70;;
65033;SDS011;51601;51.356;12.458;2023-03-23T15:50:45;4.87;;;1.30;;
65033;SDS011;51601;51.356;12.458;2023-03-23T15:55:18;3.42;;;1.33;;
65033;SDS011;51601;51.356;12.458;2023-03-23T15:59:43;3.85;;;1.40;;
65033;SDS011;51601;51.356;12.458;2023-03-23T16:04:09;3.60;;;1.30;;
65033;SDS011;51601;51.356;12.458;2023-03-23T16:08:36;5.00;;;1.67;;
65033;SDS011;51601;51.356;12.458;2023-03-23T16:13:02;4.85;;;1.52;;
65033;SDS011;51601;51.356;12.458;2023-03-23T16:17:27;4.37;;;1.60;;
65033;SDS011;51601;51.356;12.458;2023-03-23T16:21:52;4.22;;;1.80;;
65033;SDS011;51601;51.356;12.458;2023-03-23T16:26:16;4.25;;;1.50;;
65033;SDS011;51601;51.356;12.458;2023-03-23T16:30:41;4.30;;;1.40;;
65033;SDS011;51601;51.356;12.458;2023-03-23T16:35:06;4.30;;;1.43;;
65033;SDS011;51601;51.356;12.458;2023-03-23T16:39:32;4.25;;;1.60;;
65033;SDS011;51601;51.356;12.458;2023-03-23T16:43:56;4.72;;;1.50;;
65033;SDS011;51601;51.356;12.458;2023-03-23T16:48:20;5.10;;;1.70;;
65033;SDS011;51601;51.356;12.458;2023-03-23T16:52:45;4.85;;;1.52;;
65033;SDS011;51601;51.356;12.458;2023-03-23T16:57:11;4.57;;;1.80;;
65033;SDS011;51601;51.356;12.458;2023-03-23T17:01:35;4.60;;;1.50;;
65033;SDS011;51601;51.356;12.458;2023-03-23T17:05:59;5.03;;;1.55;;
65033;SDS011;51601;51.356;12.458;2023-03-23T17:10:24;4.38;;;1.70;;
65033;SDS011;51601;51.356;12.458;2023-03-23T17:14:50;5.25;;;2.17;;
65033;SDS011;51601;51.356;12.458;2023-03-23T17:19:14;4.67;;;1.40;;
65033;SDS011;51601;51.356;12.458;2023-03-23T17:23:38;4.57;;;1.50;;
65033;SDS011;51601;51.356;12.458;2023-03-23T17:28:03;4.35;;;1.38;;
65033;SDS011;51601;51.356;12.458;2023-03-23T17:32:29;5.03;;;1.50;;
65033;SDS011;51601;51.356;12.458;2023-03-23T17:36:55;4.03;;;1.50;;
65033;SDS011;51601;51.356;12.458;2023-03-23T17:41:19;4.50;;;1.58;;
65033;SDS011;51601;51.356;12.458;2023-03-23T17:45:43;5.70;;;1.57;;
65033;SDS011;51601;51.356;12.458;2023-03-23T17:50:10;4.07;;;1.48;;
65033;SDS011;51601;51.356;12.458;2023-03-23T17:54:35;4.40;;;1.80;;
65033;SDS011;51601;51.356;12.458;2023-03-23T17:58:59;4.13;;;1.40;;
65033;SDS011;51601;51.356;12.458;2023-03-23T18:03:23;7.53;;;1.70;;
65033;SDS011;51601;51.356;12.458;2023-03-23T18:07:49;4.82;;;1.63;;
65033;SDS011;51601;51.356;12.458;2023-03-23T18:12:13;5.78;;;2.10;;
65033;SDS011;51601;51.356;12.458;2023-03-23T18:16:37;6.20;;;2.37;;
65033;SDS011;51601;51.356;12.458;2023-03-23T18:21:02;5.15;;;1.80;;
65033;SDS011;51601;51.356;12.458;2023-03-23T18:25:29;5.50;;;1.92;;
65033;SDS011;51601;51.356;12.458;2023-03-23T18:29:54;5.93;;;2.00;;
65033;SDS011;51601;51.356;12.458;2023-03-23T18:34:18;4.97;;;1.90;;
65033;SDS011;51601;51.356;12.458;2023-03-23T18:38:42;5.25;;;1.75;;
65033;SDS011;51601;51.356;12.458;2023-03-23T18:43:08;5.28;;;2.08;;
65033;SDS011;51601;51.356;12.458;2023-03-23T18:47:32;5.43;;;1.80;;
65033;SDS011;51601;51.356;12.458;2023-03-23T18:51:58;9.05;;;2.20;;
65033;SDS011;51601;51.356;12.458;2023-03-23T18:56:23;5.10;;;1.60;;
65033;SDS011;51601;51.356;12.458;2023-03-23T19:00:48;5.40;;;2.20;;
65033;SDS011;51601;51.356;12.458;2023-03-23T19:05:14;5.07;;;1.90;;
65033;SDS011;51601;51.356;12.458;2023-03-23T19:09:38;6.13;;;2.15;;
65033;SDS011;51601;51.356;12.458;2023-03-23T19:14:03;4.83;;;2.07;;
65033;SDS011;51601;51.356;12.458;2023-03-23T19:18:56;4.57;;;1.80;;
65033;SDS011;51601;51.356;12.458;2023-03-23T19:23:50;4.35;;;1.90;;
65033;SDS011;51601;51.356;12.458;2023-03-23T19:28:24;5.50;;;2.20;;
65033;SDS011;51601;51.356;12.458;2023-03-23T19:32:52;4.97;;;2.20;;
65033;SDS011;51601;51.356;12.458;2023-03-23T19:37:18;5.30;;;2.33;;
65033;SDS011;51601;51.356;12.458;2023-03-23T19:41:42;5.78;;;2.28;;
65033;SDS011;51601;51.356;12.458;2023-03-23T19:46:07;5.53;;;2.47;;
65033;SDS011;51601;51.356;12.458;2023-03-23T19:50:30;6.22;;;2.28;;
65033;SDS011;51601;51.356;12.458;2023-03-23T19:54:59;7.28;;;2.47;;
65033;SDS011;51601;51.356;12.458;2023-03-23T19:59:23;4.93;;;2.20;;
65033;SDS011;51601;51.356;12.458;2023-03-23T20:03:47;5.68;;;2.40;;
65033;SDS011;51601;51.356;12.458;2023-03-23T20:08:12;6.60;;;2.58;;
65033;SDS011;51601;51.356;12.458;2023-03-23T20:12:37;5.30;;;2.25;;
65033;SDS011;51601;51.356;12.458;2023-03-23T20:17:01;5.97;;;2.70;;
65033;SDS011;51601;51.356;12.458;2023-03-23T20:21:27;5.93;;;2.53;;
65033;SDS011;51601;51.356;12.458;2023-03-23T20:25:50;6.00;;;2.30;;
65033;SDS011;51601;51.356;12.458;2023-03-23T20:30:16;6.33;;;3.17;;
65033;SDS011;51601;51.356;12.458;2023-03-23T20:34:41;8.93;;;2.80;;
65033;SDS011;51601;51.356;12.458;2023-03-23T20:39:10;6.22;;;3.00;;
65033;SDS011;51601;51.356;12.458;2023-03-23T20:43:36;6.40;;;3.17;;
65033;SDS011;51601;51.356;12.458;2023-03-23T20:48:02;7.82;;;2.88;;
65033;SDS011;51601;51.356;12.458;2023-03-23T20:52:26;6.82;;;2.88;;
65033;SDS011;51601;51.356;12.458;2023-03-23T20:56:44;7.63;;;3.08;;
65033;SDS011;51601;51.356;12.458;2023-03-23T21:01:03;6.77;;;3.10;;
65033;SDS011;51601;51.356;12.458;2023-03-23T21:05:31;6.53;;;3.10;;
65033;SDS011;51601;51.356;12.458;2023-03-23T21:09:55;8.70;;;3.58;;
65033;SDS011;51601;51.356;12.458;2023-03-23T21:14:19;6.83;;;3.23;;
65033;SDS011;51601;51.356;12.458;2023-03-23T21:18:43;7.00;;;3.30;;
65033;SDS011;51601;51.356;12.458;2023-03-23T21:23:10;7.63;;;3.75;;
65033;SDS011;51601;51.356;12.458;2023-03-23T21:27:36;6.70;;;3.43;;
65033;SDS011;51601;51.356;12.458;2023-03-23T21:31:54;9.13;;;3.15;;
65033;SDS011;51601;51.356;12.458;2023-03-23T21:36:22;7.20;;;3.20;;
65033;SDS011;51601;51.356;12.458;2023-03-23T21:40:49;7.43;;;3.05;;
65033;SDS011;51601;51.356;12.458;2023-03-23T21:45:13;6.87;;;3.03;;
65033;SDS011;51601;51.356;12.458;2023-03-23T21:49:39;6.60;;;3.30;;
65033;SDS011;51601;51.356;12.458;2023-03-23T21:54:06;7.45;;;3.40;;
65033;SDS011;51601;51.356;12.458;2023-03-23T21:58:33;7.37;;;3.13;;
65033;SDS011;51601;51.356;12.458;2023-03-23T22:02:57;5.93;;;2.38;;
65033;SDS011;51601;51.356;12.458;2023-03-23T22:07:22;5.88;;;2.30;;
65033;SDS011;51601;51.356;12.458;2023-03-23T22:11:46;5.80;;;2.40;;
65033;SDS011;51601;51.356;12.458;2023-03-23T22:16:13;6.05;;;2.00;;
65033;SDS011;51601;51.356;12.458;2023-03-23T22:20:39;5.53;;;2.20;;
65033;SDS011;51601;51.356;12.458;2023-03-23T22:25:04;5.68;;;2.30;;
65033;SDS011;51601;51.356;12.458;2023-03-23T22:29:29;6.67;;;2.13;;
65033;SDS011;51601;51.356;12.458;2023-03-23T22:33:55;5.20;;;2.35;;
65033;SDS011;51601;51.356;12.458;2023-03-23T22:38:19;4.97;;;1.90;;
65033;SDS011;51601;51.356;12.458;2023-03-23T22:42:44;5.10;;;2.03;;
65033;SDS011;51601;51.356;12.458;2023-03-23T22:47:08;5.78;;;2.10;;
65033;SDS011;51601;51.356;12.458;2023-03-23T22:51:33;4.93;;;2.05;;
65033;SDS011;51601;51.356;12.458;2023-03-23T22:55:58;4.80;;;2.07;;
65033;SDS011;51601;51.356;12.458;2023-03-23T23:00:17;5.50;;;1.98;;
65033;SDS011;51601;51.356;12.458;2023-03-23T23:04:42;6.10;;;2.00;;
65033;SDS011;51601;51.356;12.458;2023-03-23T23:09:07;4.18;;;1.60;;
65033;SDS011;51601;51.356;12.458;2023-03-23T23:13:32;5.20;;;1.80;;
65033;SDS011;51601;51.356;12.458;2023-03-23T23:17:56;5.10;;;2.15;;
65033;SDS011;51601;51.356;12.458;2023-03-23T23:22:20;6.50;;;1.80;;
65033;SDS011;51601;51.356;12.458;2023-03-23T23:26:45;4.53;;;1.90;;
65033;SDS011;51601;51.356;12.458;2023-03-23T23:31:17;4.80;;;1.90;;
65033;SDS011;51601;51.356;12.458;2023-03-23T23:35:43;5.45;;;1.95;;
65033;SDS011;51601;51.356;12.458;2023-03-23T23:40:09;4.63;;;1.67;;
65033;SDS011;51601;51.356;12.458;2023-03-23T23:44:31;5.15;;;1.90;;
65033;SDS011;51601;51.356;12.458;2023-03-23T23:48:55;5.47;;;2.03;;
65033;SDS011;51601;51.356;12.458;2023-03-23T23:53:19;5.10;;;1.85;;
65033;SDS011;51601;51.356;12.458;2023-03-23T23:57:44;5.53;;;1.97;;
